Terminal Aerodrome Forecast
Issued by NWS

Home | Current Version | Previous Version | Text Only | Print | Product List | Glossary On
Versions: 1 2 3 4 5 6 7 8 9 10 11 12 13 14 15 16 17 18 19 20 21 22 23 24 25 26 27 28
000
FTUS45 KBOU 230903 AAA
TAFAPA
TAF AMD
KAPA 230903Z 2309/2406 15009KT P6SM SCT220
     FM231500 24014G25KT P6SM SCT220
     FM231800 23018G30KT P6SM FEW120 SCT220
     FM232300 25012G25KT P6SM FEW100 BKN150
     FM240300 35018G24KT P6SM VCSH FEW020 OVC060
     FM240500 35015G22KT 4SM -SHRA OVC020=

USA.gov is the U.S. government's official web portal to all federal, state and local government web resources and services.